createdAt,value
2023-01-17T00:02:01.688Z,67.46
2023-01-17T00:06:27.385Z,67.41
2023-01-17T00:10:29.149Z,67.42
2023-01-17T00:14:30.714Z,67.66
2023-01-17T00:18:32.427Z,67.92
2023-01-17T00:22:52.518Z,68.20
2023-01-17T00:27:12.357Z,67.89
2023-01-17T00:31:15.723Z,68.44
2023-01-17T00:35:17.781Z,68.13
2023-01-17T00:39:19.197Z,67.34
2023-01-17T00:43:41.560Z,67.21
2023-01-17T00:48:05.123Z,66.80
2023-01-17T00:52:25.272Z,66.57
2023-01-17T00:56:45.394Z,66.77
2023-01-17T01:01:05.503Z,66.55
2023-01-17T01:05:26.775Z,65.89
2023-01-17T01:09:47.173Z,65.58
2023-01-17T01:14:07.327Z,65.82
2023-01-17T01:18:30.358Z,64.99
2023-01-17T01:22:50.122Z,64.88
2023-01-17T01:27:10.152Z,64.19
2023-01-17T01:31:30.132Z,63.01
2023-01-17T01:35:31.844Z,62.88
2023-01-17T01:39:33.392Z,61.84
2023-01-17T01:43:48.506Z,61.55
2023-01-17T01:47:54.028Z,61.15
2023-01-17T01:51:59.490Z,61.62
2023-01-17T01:56:01.911Z,61.27
2023-01-17T02:00:17.391Z,61.41
2023-01-17T02:04:20.669Z,62.02
2023-01-17T02:08:23.879Z,62.18
2023-01-17T02:12:25.852Z,61.89
2023-01-17T02:16:53.297Z,62.24
2023-01-17T02:21:12.856Z,61.15
2023-01-17T02:25:52.030Z,61.37
2023-01-17T02:30:13.332Z,61.16
2023-01-17T02:34:20.980Z,61.15
2023-01-17T02:38:50.685Z,61.30
2023-01-17T02:42:59.692Z,61.02
2023-01-17T02:47:01.221Z,61.22
2023-01-17T02:51:14.975Z,61.60
2023-01-17T02:55:43.763Z,61.50
2023-01-17T03:00:18.904Z,60.90
2023-01-17T03:04:28.056Z,60.42
2023-01-17T03:08:30.641Z,59.67
2023-01-17T03:12:35.315Z,59.44
2023-01-17T03:16:37.039Z,59.26
2023-01-17T03:20:38.551Z,57.53
2023-01-17T03:24:40.048Z,58.39
2023-01-17T03:28:41.694Z,57.89
2023-01-17T03:32:43.416Z,56.89
2023-01-17T03:36:44.931Z,56.46
2023-01-17T03:40:46.464Z,55.83
2023-01-17T03:44:47.919Z,55.41
2023-01-17T03:48:49.526Z,54.89
2023-01-17T03:52:51.203Z,54.93
2023-01-17T03:56:52.747Z,55.38
2023-01-17T04:00:54.499Z,55.14
2023-01-17T04:04:56.129Z,55.33
2023-01-17T04:08:57.605Z,55.12
2023-01-17T04:12:59.146Z,54.84
2023-01-17T04:17:01.280Z,55.20
2023-01-17T04:21:02.868Z,55.00
2023-01-17T04:25:04.878Z,55.16
2023-01-17T04:29:06.409Z,55.48
2023-01-17T04:33:07.967Z,55.33
2023-01-17T04:37:09.945Z,55.24
2023-01-17T04:41:11.554Z,55.00
2023-01-17T04:45:13.829Z,55.41
2023-01-17T04:49:15.470Z,55.54
2023-01-17T04:53:17.076Z,55.79
2023-01-17T04:57:19.574Z,55.54
2023-01-17T05:01:21.194Z,55.19
2023-01-17T05:05:22.746Z,55.92
2023-01-17T05:09:24.316Z,55.05
2023-01-17T05:13:25.873Z,55.28
2023-01-17T05:17:27.396Z,55.21
2023-01-17T05:21:30.460Z,55.45
2023-01-17T05:25:33.073Z,55.44
2023-01-17T05:29:34.617Z,54.76
2023-01-17T05:33:36.213Z,54.66
2023-01-17T05:37:37.668Z,54.95
2023-01-17T05:41:39.330Z,54.50
2023-01-17T05:45:40.866Z,54.83
2023-01-17T05:49:45.101Z,55.13
2023-01-17T05:53:47.422Z,55.27
2023-01-17T05:57:49.671Z,55.75
2023-01-17T06:01:51.205Z,55.27
2023-01-17T06:05:52.726Z,55.49
2023-01-17T06:09:54.302Z,55.95
2023-01-17T06:13:55.796Z,55.88
2023-01-17T06:17:57.627Z,56.25
2023-01-17T06:21:59.108Z,56.38
2023-01-17T06:26:03.556Z,56.84
2023-01-17T06:30:06.124Z,57.30
2023-01-17T06:40:07.591Z,57.45
2023-01-17T06:44:42.835Z,57.39
2023-01-17T06:48:44.584Z,56.97
2023-01-17T06:52:57.595Z,57.37
2023-01-17T06:56:59.210Z,57.20
2023-01-17T07:01:35.593Z,57.27
2023-01-17T07:06:28.756Z,57.13
2023-01-17T07:10:30.404Z,57.28
2023-01-17T07:14:31.934Z,56.81
2023-01-17T07:18:34.230Z,56.98
2023-01-17T07:28:49.241Z,55.98
2023-01-17T07:32:53.370Z,55.80
2023-01-17T07:37:26.388Z,55.75
2023-01-17T07:41:30.497Z,55.34
2023-01-17T07:46:05.340Z,55.09
2023-01-17T07:50:57.345Z,55.44
2023-01-17T07:54:58.946Z,55.90
2023-01-17T07:59:01.461Z,55.58
2023-01-17T08:03:54.774Z,56.18
2023-01-17T08:08:46.357Z,55.77
2023-01-17T08:13:38.647Z,55.89
2023-01-17T08:17:47.408Z,55.88
2023-01-17T08:21:48.827Z,55.98
2023-01-17T08:25:50.543Z,55.35
2023-01-17T08:29:52.073Z,55.59
2023-01-17T08:33:53.768Z,55.31
2023-01-17T08:38:29.111Z,51.50
2023-01-17T08:42:30.810Z,52.67
2023-01-17T08:47:06.280Z,53.64
2023-01-17T08:51:58.531Z,53.22
2023-01-17T08:56:01.868Z,53.56
2023-01-17T09:00:05.193Z,53.68
2023-01-17T09:04:08.819Z,52.18
2023-01-17T09:08:10.415Z,46.04
2023-01-17T09:12:12.220Z,40.78
2023-01-17T09:16:13.814Z,40.19
2023-01-17T09:20:15.764Z,39.56
2023-01-17T09:24:17.261Z,40.53
2023-01-17T09:29:09.551Z,36.56
2023-01-17T09:33:11.419Z,36.23
2023-01-17T09:37:13.282Z,34.98
2023-01-17T09:41:28.736Z,30.20
2023-01-17T09:45:32.468Z,30.94
2023-01-17T09:49:45.591Z,30.57
2023-01-17T09:53:47.626Z,30.90
2023-01-17T09:57:58.508Z,27.93
2023-01-17T10:02:44.616Z,29.78
2023-01-17T10:06:46.045Z,27.02
2023-01-17T10:10:54.304Z,25.83
2023-01-17T10:21:14.431Z,23.73
2023-01-17T10:25:50.743Z,25.11
2023-01-17T10:29:52.270Z,25.49
2023-01-17T10:39:58.071Z,27.63
2023-01-17T10:44:06.174Z,31.94
2023-01-17T10:48:39.028Z,34.90
2023-01-17T10:52:52.750Z,37.57
2023-01-17T10:56:54.785Z,38.47
2023-01-17T11:01:13.882Z,38.11
2023-01-17T11:05:28.307Z,41.54
2023-01-17T11:09:42.173Z,39.31
2023-01-17T11:13:47.644Z,40.12
2023-01-17T11:18:00.367Z,40.34
2023-01-17T11:22:04.833Z,39.64
2023-01-17T11:26:57.055Z,39.42
2023-01-17T11:31:48.202Z,39.17
2023-01-17T11:35:50.009Z,38.50
2023-01-17T11:39:52.076Z,38.73
2023-01-17T11:44:43.343Z,30.67
2023-01-17T11:49:35.475Z,28.27
2023-01-17T11:53:39.888Z,23.58
2023-01-17T11:58:14.444Z,27.46
2023-01-17T12:03:07.526Z,32.54
2023-01-17T12:07:59.393Z,31.61
2023-01-17T12:12:31.975Z,30.22
2023-01-17T12:16:54.285Z,30.82
2023-01-17T12:21:40.467Z,32.74
2023-01-17T12:25:59.129Z,27.10
2023-01-17T12:30:34.330Z,20.34
2023-01-17T12:35:08.736Z,18.05
2023-01-17T12:39:37.025Z,19.15
2023-01-17T12:43:43.920Z,17.93
2023-01-17T12:47:54.272Z,18.24
2023-01-17T12:52:04.851Z,19.25
2023-01-17T12:56:16.158Z,17.00
2023-01-17T13:00:23.076Z,17.64
2023-01-17T13:04:57.996Z,17.20
2023-01-17T13:09:03.256Z,16.62
2023-01-17T13:13:20.012Z,16.34
2023-01-17T13:17:35.406Z,15.58
2023-01-17T13:21:37.438Z,15.88
2023-01-17T13:25:48.735Z,16.89
2023-01-17T13:30:03.354Z,15.76
2023-01-17T13:34:14.005Z,15.71
2023-01-17T13:38:30.328Z,16.86
2023-01-17T13:42:47.054Z,16.07
2023-01-17T13:47:01.275Z,17.77
2023-01-17T13:51:07.956Z,17.37
2023-01-17T13:55:44.606Z,17.36
2023-01-17T13:59:46.118Z,18.88
2023-01-17T14:03:51.313Z,24.22
2023-01-17T14:08:00.058Z,26.67
2023-01-17T14:12:10.770Z,27.58
2023-01-17T14:16:22.003Z,30.72
2023-01-17T14:20:27.249Z,33.30
2023-01-17T14:24:28.824Z,34.80
2023-01-17T14:29:20.618Z,35.82
2023-01-17T14:34:12.606Z,36.76
2023-01-17T14:38:27.257Z,38.30
2023-01-17T14:42:31.297Z,40.35
2023-01-17T14:46:34.729Z,40.87
2023-01-17T14:50:38.025Z,40.23
2023-01-17T14:54:47.590Z,40.41
2023-01-17T14:59:21.002Z,40.99
2023-01-17T15:03:54.363Z,42.05
2023-01-17T15:07:58.119Z,42.39
2023-01-17T15:12:02.385Z,43.30
2023-01-17T15:16:41.622Z,43.76
2023-01-17T15:21:33.291Z,43.65
2023-01-17T15:25:35.108Z,43.43
2023-01-17T15:29:36.750Z,44.28
2023-01-17T15:34:05.316Z,45.15
2023-01-17T15:44:46.693Z,45.49
2023-01-17T15:48:51.483Z,45.15
2023-01-17T15:53:05.219Z,46.02
2023-01-17T15:57:27.042Z,47.20
2023-01-17T16:01:28.677Z,47.42
2023-01-17T16:05:34.584Z,46.47
2023-01-17T16:09:43.613Z,47.09
2023-01-17T16:13:47.224Z,47.19
2023-01-17T16:17:52.479Z,47.14
2023-01-17T16:21:56.904Z,48.04
2023-01-17T16:25:58.456Z,48.33
2023-01-17T16:29:59.935Z,48.37
2023-01-17T16:34:01.791Z,49.76
2023-01-17T16:38:06.111Z,49.15
2023-01-17T16:42:11.704Z,48.94
2023-01-17T16:46:13.607Z,50.57
2023-01-17T16:50:17.457Z,51.72
2023-01-17T16:54:19.093Z,52.00
2023-01-17T16:58:20.636Z,52.63
2023-01-17T17:02:22.877Z,53.81
2023-01-17T17:06:24.392Z,53.81
2023-01-17T17:10:27.639Z,54.95
2023-01-17T17:14:29.311Z,54.72
2023-01-17T17:18:31.000Z,55.18
2023-01-17T17:22:32.947Z,54.71
2023-01-17T17:26:36.477Z,55.15
2023-01-17T17:30:38.011Z,56.09
2023-01-17T17:34:39.705Z,56.36
2023-01-17T17:38:53.580Z,55.86
2023-01-17T17:42:58.141Z,57.07
2023-01-17T17:47:00.036Z,57.19
2023-01-17T17:51:02.871Z,57.41
2023-01-17T17:55:04.727Z,59.50
2023-01-17T17:59:08.207Z,59.59
2023-01-17T18:03:09.721Z,59.57
2023-01-17T18:07:11.254Z,59.68
2023-01-17T18:11:19.821Z,59.76
2023-01-17T18:15:21.418Z,60.47
2023-01-17T18:19:25.792Z,60.78
2023-01-17T18:23:27.381Z,60.91
2023-01-17T18:27:28.871Z,61.24
2023-01-17T18:31:31.132Z,61.67
2023-01-17T18:35:32.651Z,62.10
2023-01-17T18:39:34.340Z,62.33
2023-01-17T18:43:36.050Z,62.75
2023-01-17T18:47:38.710Z,62.50
2023-01-17T18:51:40.468Z,63.01
2023-01-17T18:55:41.983Z,63.95
2023-01-17T18:59:44.305Z,64.08
2023-01-17T19:03:48.767Z,64.51
2023-01-17T19:07:50.367Z,65.22
2023-01-17T19:11:51.958Z,64.74
2023-01-17T19:15:53.522Z,65.05
2023-01-17T19:19:57.073Z,65.02
2023-01-17T19:23:59.121Z,64.63
2023-01-17T19:28:01.577Z,65.02
2023-01-17T19:32:03.299Z,65.07
2023-01-17T19:36:08.970Z,65.11
2023-01-17T19:40:11.621Z,64.80
2023-01-17T19:44:14.981Z,65.50
2023-01-17T19:48:16.800Z,65.42
2023-01-17T19:52:18.378Z,65.71
2023-01-17T19:56:24.401Z,65.87
2023-01-17T20:00:30.207Z,66.16
2023-01-17T20:04:32.199Z,66.23
2023-01-17T20:08:35.052Z,66.74
2023-01-17T20:12:36.671Z,66.61
2023-01-17T20:16:38.445Z,65.97
2023-01-17T20:20:56.368Z,66.22
2023-01-17T20:24:59.154Z,66.45
2023-01-17T20:29:04.476Z,66.42
2023-01-17T20:33:06.016Z,66.58
2023-01-17T20:37:08.423Z,67.25
2023-01-17T20:41:12.017Z,67.50
2023-01-17T20:45:13.654Z,67.63
2023-01-17T20:49:18.858Z,67.91
2023-01-17T20:53:21.926Z,68.39
2023-01-17T20:57:23.493Z,68.59
2023-01-17T21:01:25.246Z,69.10
2023-01-17T21:05:27.613Z,68.67
2023-01-17T21:10:19.533Z,69.21
2023-01-17T21:14:24.619Z,68.81
2023-01-17T21:18:27.939Z,68.90
2023-01-17T21:23:20.262Z,69.58
2023-01-17T21:27:21.988Z,68.97
2023-01-17T21:31:30.180Z,68.38
2023-01-17T21:36:22.965Z,68.38
2023-01-17T21:40:24.592Z,68.13
2023-01-17T21:44:26.656Z,68.01
2023-01-17T21:48:28.265Z,68.03
2023-01-17T21:52:31.555Z,67.65
2023-01-17T21:56:51.921Z,67.77
2023-01-17T22:07:00.631Z,68.06
2023-01-17T22:11:13.206Z,68.50
2023-01-17T22:15:37.379Z,68.14
2023-01-17T22:19:42.837Z,68.60
2023-01-17T22:23:46.591Z,68.52
2023-01-17T22:28:13.265Z,67.77
2023-01-17T22:32:36.800Z,67.82
2023-01-17T22:36:38.691Z,67.86
2023-01-17T22:41:16.257Z,68.61
2023-01-17T22:45:19.098Z,68.66
2023-01-17T22:49:23.394Z,68.38
2023-01-17T22:54:15.291Z,68.87
2023-01-17T22:59:11.714Z,68.55
2023-01-17T23:03:13.738Z,68.53
2023-01-17T23:07:15.809Z,67.68
2023-01-17T23:11:41.853Z,68.06
2023-01-17T23:16:02.353Z,67.95
2023-01-17T23:20:06.427Z,67.92
2023-01-17T23:24:08.504Z,67.86
2023-01-17T23:28:20.522Z,67.89
2023-01-17T23:32:22.609Z,67.43
2023-01-17T23:36:24.262Z,67.94
2023-01-17T23:40:25.951Z,68.46
2023-01-17T23:44:31.564Z,67.98
2023-01-17T23:48:33.117Z,67.89
2023-01-17T23:52:34.760Z,66.57
2023-01-17T23:56:36.333Z,67.00
